Stanstead, Canada
Current Conditions -  °F | °C
As of 3:35 AM on Saturday 29 Nov 2014 (Local Time) from KEFK Reporting Station
Clear Clear  
Wind Chill: 14°   Ceiling: Unl
Heat Index: 14°   Visibility: 10mi
Dew Point: 11°   Wind: 3mph
Humidity: 90%   Direction: 170°S
Pressure: 30.18"   Gusts: NA
Location:  45.02°N, 72.08°W
Report Text: KEFK 290835Z AUTO 17003KT 10SM CLR M10/M12 A3018 RMK AO2 T11021116
Loading
Personal Weather Stations






























Interactive Weather Map New forecast layout! Learn more

10-Day Weather Forecast

Advertisements
Track Severe Weather on mobile